Time;durP1;ratioP1;P1;durP2;ratioP2;P2;SDS_P1;SDS_P2;PMS_P1;PMS_P2;Temp;Humidity;BMP_temperature;BMP_pressure;BME280_temperature;BME280_humidity;BME280_pressure;Samples;Min_cycle;Max_cycle;Signal;HPM_P1;HPM_P2
2021/03/15 08:02:09;;;;;;;2.40;1.00;;;;;;;;;;10624572;27;20404;-88
2021/03/15 08:07:36;;;;;;;5.94;1.93;;;;;;;;;;10574091;28;16467687;-87
2021/03/15 08:18:41;;;;;;;4.00;1.67;;;;;;;;;;10656543;27;20031;-84
2021/03/15 08:23:43;;;;;;;3.38;1.35;;;;;;;;;;10637008;27;20042;-83
2021/03/15 08:29:06;;;;;;;2.85;1.23;;;;;;;;;;10662733;27;20027;-85
2021/03/15 09:36:42;;;;;;;5.03;1.80;;;;;;;;;;10645662;27;20110;-83
2021/03/15 09:47:37;;;;;;;5.28;2.20;;;;;;;;;;10642229;27;20095;-84
2021/03/15 09:53:12;;;;;;;4.35;2.08;;;;;;;;;;10631520;27;20063;-83
2021/03/15 09:58:41;;;;;;;5.97;3.10;;;;;;;;;;10648475;27;20027;-83
2021/03/15 10:04:02;;;;;;;4.57;1.90;;;;;;;;;;10631095;27;20562;-84
2021/03/15 10:09:38;;;;;;;5.28;2.17;;;;;;;;;;10648846;27;20019;-83
2021/03/15 10:15:10;;;;;;;3.72;1.80;;;;;;;;;;10616141;27;20031;-84
2021/03/15 10:20:43;;;;;;;4.95;1.65;;;;;;;;;;10588924;27;20041;-83
2021/03/15 10:26:01;;;;;;;4.18;1.90;;;;;;;;;;10621720;27;20024;-85
2021/03/15 10:31:13;;;;;;;5.40;1.80;;;;;;;;;;10643792;27;20031;-84
2021/03/15 10:36:20;;;;;;;5.20;2.00;;;;;;;;;;10629459;27;20529;-83
2021/03/15 10:52:35;;;;;;;4.00;1.50;;;;;;;;;;10467303;28;20033;-85
2021/03/15 11:03:54;;;;;;;4.78;1.58;;;;;;;;;;10441110;28;20045;-84
2021/03/15 11:08:58;;;;;;;4.65;1.30;;;;;;;;;;10499754;28;20033;-85
2021/03/15 11:14:19;;;;;;;4.22;1.38;;;;;;;;;;10503295;28;20036;-85
2021/03/15 11:19:21;;;;;;;4.35;1.30;;;;;;;;;;10498508;28;20398;-85
2021/03/15 11:24:28;;;;;;;5.30;1.40;;;;;;;;;;10493386;28;20507;-85
2021/03/15 11:30:00;;;;;;;2.58;1.05;;;;;;;;;;10518189;28;20037;-86
2021/03/15 11:35:30;;;;;;;3.88;1.52;;;;;;;;;;10513786;28;20045;-85
2021/03/15 11:40:52;;;;;;;2.58;1.10;;;;;;;;;;10488341;28;20035;-84
2021/03/15 11:51:31;;;;;;;;;;;;;;;;;;10516454;28;20111;-86
2021/03/15 11:56:55;;;;;;;6.45;1.30;;;;;;;;;;10493789;28;19920;-86
2021/03/15 12:02:28;;;;;;;4.75;1.60;;;;;;;;;;10510579;28;20020;-86
2021/03/15 12:07:31;;;;;;;3.70;1.27;;;;;;;;;;10495829;28;20040;-86
2021/03/15 12:12:57;;;;;;;3.78;1.27;;;;;;;;;;10495377;28;20126;-86
2021/03/15 12:18:09;;;;;;;2.92;1.00;;;;;;;;;;10458386;28;20094;-87
2021/03/15 12:23:11;;;;;;;1.73;0.95;;;;;;;;;;10510551;28;20114;-87
2021/03/15 12:33:56;;;;;;;5.25;1.30;;;;;;;;;;10441019;28;20036;-87
2021/03/15 12:38:59;;;;;;;2.95;0.90;;;;;;;;;;10486486;28;20029;-87
2021/03/15 12:44:00;;;;;;;2.95;1.02;;;;;;;;;;10494954;28;20375;-88
2021/03/15 12:49:14;;;;;;;2.60;1.00;;;;;;;;;;10507783;28;20459;-87
2021/03/15 12:54:18;;;;;;;3.60;1.13;;;;;;;;;;10488267;28;20048;-88
2021/03/15 12:59:47;;;;;;;2.15;0.85;;;;;;;;;;10471510;28;20068;-88
2021/03/15 13:05:02;;;;;;;2.03;0.80;;;;;;;;;;10486276;28;20052;-86
2021/03/15 16:05:41;;;;;;;5.18;1.17;;;;;;;;;;10554415;28;20024;-87
2021/03/15 16:17:02;;;;;;;6.00;1.60;;;;;;;;;;10346682;28;20038;-89
2021/03/15 16:39:41;;;;;;;;;;;;;;;;;;;;;
